Pagrindinis puslapis
METAR-TAF:

METAR-TAF

Oro uostai :

Kylis, Vokietija

platuma: 54-23N, ilguma: 010-10E, Aukštis: 31 m

Dabartinis oras

Ataskaita buvo paskelbta 56 minutes, ne 09:20 UTC
Vėjas 9 kt iš Vakarų, svyruoja nuo Vakarų/Pietvakarių ir Vakarų/Šiaurės Vakarų
Temperatūra 15°C
Drėgmė 77%
Slėgis 1027 hPa
Matomumas 10 km arba daugiau
Mažai debesys ne aukštis 1500 ft
Su prošvaistėmis ne aukštis 4000 ft

METAR: EDHK 200920Z 28009KT 240V300 9999 FEW015 BKN040 15/11 Q1027

Laikas: 12:16 (10:16 UTC)

Prognozė

Ataskaita buvo paskelbta 2 valandos ir 16 minutes, ne 08:00 UTC
Prognozė galioja nuo 20 metu 09 UTC su 20 metu 18 UTC
Vėjas 8 kt iš Vakarų/Pietvakarių
Matomumas 10 km arba daugiau
Su prošvaistėmis ne aukštis 3000 ft
Laikinai
nuo 20 metu 09 UTC su 20 metu 18 UTC
Matomumas: 4000 m
Su prošvaistėmis ne aukštis 1200 ft
dulksna, lietus
Tikimybė 30% :
Laikinai
nuo 20 metu 09 UTC su 20 metu 15 UTC
Su prošvaistėmis ne aukštis 800 ft

TAF: EDHK 200800Z 2009/2018 25008KT 9999 BKN030 TEMPO 2009/2018 4000 -DZRA BKN012 PROB30 TEMPO 2009/2015 BKN008

Orai ataskaitas ir orų prognozės (METAR, TAF).

turimą stotys yra geltonos ir raudonos taškus žemėlapyje.

Perkelti pele per norėdami pamatyti stoties vardą.

Tada spustelėkite, norėdami matyti oro stebėjimo ir prognozės.

Norėdami pakeisti žemėlapį: spustelėkite ant žalios mygtukų su juodo kryžiaus žemyn,; žalią mygtuką su brūkšneliu, jei norite nutolinti; arba žalių rodyklių gretimoms žemėlapius.


METAR-TAF: